sensor_id;sensor_type;location;lat;lon;timestamp;temperature;humidity
30174;DHT22;16985;50.814;8.530;2023-09-07T00:00:50;16.00;99.90
30174;DHT22;16985;50.814;8.530;2023-09-07T00:03:16;15.90;99.90
30174;DHT22;16985;50.814;8.530;2023-09-07T00:05:42;15.90;99.90
30174;DHT22;16985;50.814;8.530;2023-09-07T00:08:08;15.90;99.90
30174;DHT22;16985;50.814;8.530;2023-09-07T00:10:34;15.80;99.90
30174;DHT22;16985;50.814;8.530;2023-09-07T00:13:03;15.80;99.90
30174;DHT22;16985;50.814;8.530;2023-09-07T00:15:36;15.80;99.90
30174;DHT22;16985;50.814;8.530;2023-09-07T00:18:03;15.80;99.90
30174;DHT22;16985;50.814;8.530;2023-09-07T00:20:30;15.70;99.90
30174;DHT22;16985;50.814;8.530;2023-09-07T00:22:57;15.70;99.90
30174;DHT22;16985;50.814;8.530;2023-09-07T00:25:23;15.70;99.90
30174;DHT22;16985;50.814;8.530;2023-09-07T00:27:49;15.70;99.90
30174;DHT22;16985;50.814;8.530;2023-09-07T00:30:15;15.60;99.90
30174;DHT22;16985;50.814;8.530;2023-09-07T00:32:41;15.60;99.90
30174;DHT22;16985;50.814;8.530;2023-09-07T00:35:08;15.60;99.90
30174;DHT22;16985;50.814;8.530;2023-09-07T00:37:34;15.50;99.90
30174;DHT22;16985;50.814;8.530;2023-09-07T00:40:01;15.50;99.90
30174;DHT22;16985;50.814;8.530;2023-09-07T00:42:29;15.40;99.90
30174;DHT22;16985;50.814;8.530;2023-09-07T00:44:55;15.40;99.90
30174;DHT22;16985;50.814;8.530;2023-09-07T00:47:22;15.40;99.90
30174;DHT22;16985;50.814;8.530;2023-09-07T00:49:48;15.30;99.90
30174;DHT22;16985;50.814;8.530;2023-09-07T00:52:15;15.40;99.90
30174;DHT22;16985;50.814;8.530;2023-09-07T00:54:42;15.30;99.90
30174;DHT22;16985;50.814;8.530;2023-09-07T00:57:08;15.30;99.90
30174;DHT22;16985;50.814;8.530;2023-09-07T00:59:35;15.30;99.90
30174;DHT22;16985;50.814;8.530;2023-09-07T01:02:02;15.20;99.90
30174;DHT22;16985;50.814;8.530;2023-09-07T01:04:31;15.20;99.90
30174;DHT22;16985;50.814;8.530;2023-09-07T01:07:03;15.20;99.90
30174;DHT22;16985;50.814;8.530;2023-09-07T01:09:37;15.20;99.90
30174;DHT22;16985;50.814;8.530;2023-09-07T01:12:06;15.20;99.90
30174;DHT22;16985;50.814;8.530;2023-09-07T01:14:37;15.10;99.90
30174;DHT22;16985;50.814;8.530;2023-09-07T01:17:05;15.10;99.90
30174;DHT22;16985;50.814;8.530;2023-09-07T01:19:31;15.10;99.90
30174;DHT22;16985;50.814;8.530;2023-09-07T01:21:58;15.10;99.90
30174;DHT22;16985;50.814;8.530;2023-09-07T01:24:25;15.00;99.90
30174;DHT22;16985;50.814;8.530;2023-09-07T01:26:53;15.00;99.90
30174;DHT22;16985;50.814;8.530;2023-09-07T01:29:19;15.00;99.90
30174;DHT22;16985;50.814;8.530;2023-09-07T01:31:46;14.90;99.90
30174;DHT22;16985;50.814;8.530;2023-09-07T01:34:13;14.80;99.90
30174;DHT22;16985;50.814;8.530;2023-09-07T01:36:40;14.80;99.90
30174;DHT22;16985;50.814;8.530;2023-09-07T01:39:08;14.80;99.90
30174;DHT22;16985;50.814;8.530;2023-09-07T01:41:34;14.80;99.90
30174;DHT22;16985;50.814;8.530;2023-09-07T01:44:00;14.80;99.90
30174;DHT22;16985;50.814;8.530;2023-09-07T01:46:27;14.80;99.90
30174;DHT22;16985;50.814;8.530;2023-09-07T01:48:53;14.80;99.90
30174;DHT22;16985;50.814;8.530;2023-09-07T01:51:19;14.80;99.90
30174;DHT22;16985;50.814;8.530;2023-09-07T01:53:47;14.70;99.90
30174;DHT22;16985;50.814;8.530;2023-09-07T01:56:21;14.70;99.90
30174;DHT22;16985;50.814;8.530;2023-09-07T01:58:47;14.70;99.90
30174;DHT22;16985;50.814;8.530;2023-09-07T02:01:27;14.60;99.90
30174;DHT22;16985;50.814;8.530;2023-09-07T02:03:55;14.60;99.90
30174;DHT22;16985;50.814;8.530;2023-09-07T02:06:22;14.60;99.90
30174;DHT22;16985;50.814;8.530;2023-09-07T02:08:48;14.60;99.90
30174;DHT22;16985;50.814;8.530;2023-09-07T02:11:15;14.60;99.90
30174;DHT22;16985;50.814;8.530;2023-09-07T02:13:42;14.50;99.90
30174;DHT22;16985;50.814;8.530;2023-09-07T02:16:08;14.50;99.90
30174;DHT22;16985;50.814;8.530;2023-09-07T02:18:38;14.50;99.90
30174;DHT22;16985;50.814;8.530;2023-09-07T02:21:09;14.50;99.90
30174;DHT22;16985;50.814;8.530;2023-09-07T02:23:39;14.40;99.90
30174;DHT22;16985;50.814;8.530;2023-09-07T02:26:04;14.40;99.90
30174;DHT22;16985;50.814;8.530;2023-09-07T02:28:31;14.40;99.90
30174;DHT22;16985;50.814;8.530;2023-09-07T02:31:05;14.40;99.90
30174;DHT22;16985;50.814;8.530;2023-09-07T02:33:32;14.30;99.90
30174;DHT22;16985;50.814;8.530;2023-09-07T02:35:59;14.30;99.90
30174;DHT22;16985;50.814;8.530;2023-09-07T02:38:25;14.30;99.90
30174;DHT22;16985;50.814;8.530;2023-09-07T02:40:51;14.20;99.90
30174;DHT22;16985;50.814;8.530;2023-09-07T02:43:18;14.20;99.90
30174;DHT22;16985;50.814;8.530;2023-09-07T02:45:44;14.20;99.90
30174;DHT22;16985;50.814;8.530;2023-09-07T02:48:10;14.10;99.90
30174;DHT22;16985;50.814;8.530;2023-09-07T02:50:38;14.10;99.90
30174;DHT22;16985;50.814;8.530;2023-09-07T02:53:05;14.10;99.90
30174;DHT22;16985;50.814;8.530;2023-09-07T02:55:32;14.10;99.90
30174;DHT22;16985;50.814;8.530;2023-09-07T02:57:58;14.10;99.90
30174;DHT22;16985;50.814;8.530;2023-09-07T03:00:26;14.00;99.90
30174;DHT22;16985;50.814;8.530;2023-09-07T03:02:54;14.00;99.90
30174;DHT22;16985;50.814;8.530;2023-09-07T03:05:20;14.00;99.90
30174;DHT22;16985;50.814;8.530;2023-09-07T03:07:46;14.00;99.90
30174;DHT22;16985;50.814;8.530;2023-09-07T03:10:14;13.90;99.90
30174;DHT22;16985;50.814;8.530;2023-09-07T03:12:43;13.80;99.90
30174;DHT22;16985;50.814;8.530;2023-09-07T03:15:09;13.80;99.90
30174;DHT22;16985;50.814;8.530;2023-09-07T03:17:36;13.90;99.90
30174;DHT22;16985;50.814;8.530;2023-09-07T03:20:02;13.80;99.90
30174;DHT22;16985;50.814;8.530;2023-09-07T03:22:43;13.80;99.90
30174;DHT22;16985;50.814;8.530;2023-09-07T03:25:10;13.80;99.90
30174;DHT22;16985;50.814;8.530;2023-09-07T03:27:40;13.80;99.90
30174;DHT22;16985;50.814;8.530;2023-09-07T03:30:11;13.80;99.90
30174;DHT22;16985;50.814;8.530;2023-09-07T03:32:38;13.70;99.90
30174;DHT22;16985;50.814;8.530;2023-09-07T03:35:04;13.70;99.90
30174;DHT22;16985;50.814;8.530;2023-09-07T03:37:35;13.70;99.90
30174;DHT22;16985;50.814;8.530;2023-09-07T03:40:03;13.70;99.90
30174;DHT22;16985;50.814;8.530;2023-09-07T03:42:41;13.70;99.90
30174;DHT22;16985;50.814;8.530;2023-09-07T03:45:09;13.60;99.90
30174;DHT22;16985;50.814;8.530;2023-09-07T03:47:38;13.60;99.90
30174;DHT22;16985;50.814;8.530;2023-09-07T03:50:09;13.60;99.90
30174;DHT22;16985;50.814;8.530;2023-09-07T03:52:37;13.60;99.90
30174;DHT22;16985;50.814;8.530;2023-09-07T03:55:04;13.50;99.90
30174;DHT22;16985;50.814;8.530;2023-09-07T03:57:31;13.50;99.90
30174;DHT22;16985;50.814;8.530;2023-09-07T03:59:57;13.50;99.90
30174;DHT22;16985;50.814;8.530;2023-09-07T04:02:24;13.50;99.90
30174;DHT22;16985;50.814;8.530;2023-09-07T04:04:54;13.40;99.90
30174;DHT22;16985;50.814;8.530;2023-09-07T04:07:23;13.40;99.90
30174;DHT22;16985;50.814;8.530;2023-09-07T04:09:50;13.40;99.90
30174;DHT22;16985;50.814;8.530;2023-09-07T04:12:16;13.40;99.90
30174;DHT22;16985;50.814;8.530;2023-09-07T04:14:42;13.30;99.90
30174;DHT22;16985;50.814;8.530;2023-09-07T04:17:10;13.30;99.90
30174;DHT22;16985;50.814;8.530;2023-09-07T04:19:37;13.30;99.90
30174;DHT22;16985;50.814;8.530;2023-09-07T04:22:03;13.30;99.90
30174;DHT22;16985;50.814;8.530;2023-09-07T04:24:29;13.20;99.90
30174;DHT22;16985;50.814;8.530;2023-09-07T04:27:00;13.20;99.90
30174;DHT22;16985;50.814;8.530;2023-09-07T04:29:27;13.20;99.90
30174;DHT22;16985;50.814;8.530;2023-09-07T04:31:57;13.10;99.90
30174;DHT22;16985;50.814;8.530;2023-09-07T04:34:23;13.10;99.90
30174;DHT22;16985;50.814;8.530;2023-09-07T04:36:51;13.10;99.90
30174;DHT22;16985;50.814;8.530;2023-09-07T04:39:18;13.00;99.90
30174;DHT22;16985;50.814;8.530;2023-09-07T04:41:44;13.10;99.90
30174;DHT22;16985;50.814;8.530;2023-09-07T04:44:10;13.00;99.90
30174;DHT22;16985;50.814;8.530;2023-09-07T04:46:36;13.00;99.90
30174;DHT22;16985;50.814;8.530;2023-09-07T04:49:02;13.00;99.90
30174;DHT22;16985;50.814;8.530;2023-09-07T04:51:28;13.00;99.90
30174;DHT22;16985;50.814;8.530;2023-09-07T04:53:55;12.90;99.90
30174;DHT22;16985;50.814;8.530;2023-09-07T04:56:20;12.90;99.90
30174;DHT22;16985;50.814;8.530;2023-09-07T04:58:47;12.90;99.90
30174;DHT22;16985;50.814;8.530;2023-09-07T05:01:13;12.90;99.90
30174;DHT22;16985;50.814;8.530;2023-09-07T05:03:40;12.90;99.90
30174;DHT22;16985;50.814;8.530;2023-09-07T05:06:07;12.80;99.90
30174;DHT22;16985;50.814;8.530;2023-09-07T05:08:33;12.80;99.90
30174;DHT22;16985;50.814;8.530;2023-09-07T05:11:02;12.80;99.90
30174;DHT22;16985;50.814;8.530;2023-09-07T05:13:29;12.40;99.90
30174;DHT22;16985;50.814;8.530;2023-09-07T05:15:58;12.80;99.90
30174;DHT22;16985;50.814;8.530;2023-09-07T05:18:24;12.80;99.90
30174;DHT22;16985;50.814;8.530;2023-09-07T05:20:50;12.80;99.90
30174;DHT22;16985;50.814;8.530;2023-09-07T05:23:21;12.70;99.90
30174;DHT22;16985;50.814;8.530;2023-09-07T05:25:50;12.70;99.90
30174;DHT22;16985;50.814;8.530;2023-09-07T05:28:22;12.70;99.90
30174;DHT22;16985;50.814;8.530;2023-09-07T05:30:50;12.70;99.90
30174;DHT22;16985;50.814;8.530;2023-09-07T05:33:17;12.70;99.90
30174;DHT22;16985;50.814;8.530;2023-09-07T05:35:45;12.70;99.90
30174;DHT22;16985;50.814;8.530;2023-09-07T05:38:12;12.70;99.90
30174;DHT22;16985;50.814;8.530;2023-09-07T05:40:40;12.70;99.90
30174;DHT22;16985;50.814;8.530;2023-09-07T05:43:07;12.70;99.90
30174;DHT22;16985;50.814;8.530;2023-09-07T05:45:36;12.70;99.90
30174;DHT22;16985;50.814;8.530;2023-09-07T05:48:05;12.70;99.90
30174;DHT22;16985;50.814;8.530;2023-09-07T05:50:35;12.70;99.90
30174;DHT22;16985;50.814;8.530;2023-09-07T05:53:02;12.70;99.90
30174;DHT22;16985;50.814;8.530;2023-09-07T05:55:28;12.80;99.90
30174;DHT22;16985;50.814;8.530;2023-09-07T05:57:55;12.80;99.90
30174;DHT22;16985;50.814;8.530;2023-09-07T06:00:22;12.80;99.90
30174;DHT22;16985;50.814;8.530;2023-09-07T06:02:49;12.80;99.90
30174;DHT22;16985;50.814;8.530;2023-09-07T06:05:16;12.90;99.90
30174;DHT22;16985;50.814;8.530;2023-09-07T06:07:43;13.00;99.90
30174;DHT22;16985;50.814;8.530;2023-09-07T06:10:11;13.00;99.90
30174;DHT22;16985;50.814;8.530;2023-09-07T06:12:37;13.00;99.90
30174;DHT22;16985;50.814;8.530;2023-09-07T06:15:04;13.00;99.90
30174;DHT22;16985;50.814;8.530;2023-09-07T06:17:30;13.00;99.90
30174;DHT22;16985;50.814;8.530;2023-09-07T06:19:57;13.00;99.90
30174;DHT22;16985;50.814;8.530;2023-09-07T06:22:24;13.00;99.90
30174;DHT22;16985;50.814;8.530;2023-09-07T06:24:51;13.10;99.90
30174;DHT22;16985;50.814;8.530;2023-09-07T06:27:17;13.10;99.90
30174;DHT22;16985;50.814;8.530;2023-09-07T06:29:44;13.10;99.90
30174;DHT22;16985;50.814;8.530;2023-09-07T06:32:10;13.10;99.90
30174;DHT22;16985;50.814;8.530;2023-09-07T06:34:36;13.20;99.90
30174;DHT22;16985;50.814;8.530;2023-09-07T06:37:02;13.20;99.90
30174;DHT22;16985;50.814;8.530;2023-09-07T06:39:28;13.30;99.90
30174;DHT22;16985;50.814;8.530;2023-09-07T06:41:54;13.30;99.90
30174;DHT22;16985;50.814;8.530;2023-09-07T06:44:24;13.40;99.90
30174;DHT22;16985;50.814;8.530;2023-09-07T06:46:50;13.40;99.90
30174;DHT22;16985;50.814;8.530;2023-09-07T06:49:17;13.40;99.90
30174;DHT22;16985;50.814;8.530;2023-09-07T06:51:44;13.50;99.90
30174;DHT22;16985;50.814;8.530;2023-09-07T06:54:10;13.50;99.90
30174;DHT22;16985;50.814;8.530;2023-09-07T06:56:39;13.60;99.90
30174;DHT22;16985;50.814;8.530;2023-09-07T06:59:05;13.70;99.90
30174;DHT22;16985;50.814;8.530;2023-09-07T07:01:31;13.70;99.90
30174;DHT22;16985;50.814;8.530;2023-09-07T07:03:58;13.80;99.90
30174;DHT22;16985;50.814;8.530;2023-09-07T07:06:24;13.80;99.90
30174;DHT22;16985;50.814;8.530;2023-09-07T07:08:51;13.90;99.90
30174;DHT22;16985;50.814;8.530;2023-09-07T07:11:18;13.90;99.90
30174;DHT22;16985;50.814;8.530;2023-09-07T07:13:45;14.00;99.90
30174;DHT22;16985;50.814;8.530;2023-09-07T07:16:12;14.10;99.90
30174;DHT22;16985;50.814;8.530;2023-09-07T07:18:38;14.10;99.90
30174;DHT22;16985;50.814;8.530;2023-09-07T07:21:05;14.20;99.90
30174;DHT22;16985;50.814;8.530;2023-09-07T07:23:32;14.40;99.90
30174;DHT22;16985;50.814;8.530;2023-09-07T07:25:58;14.40;99.90
30174;DHT22;16985;50.814;8.530;2023-09-07T07:28:26;14.50;99.90
30174;DHT22;16985;50.814;8.530;2023-09-07T07:30:52;14.60;99.90
30174;DHT22;16985;50.814;8.530;2023-09-07T07:33:20;14.70;99.90
30174;DHT22;16985;50.814;8.530;2023-09-07T07:35:46;14.80;99.90
30174;DHT22;16985;50.814;8.530;2023-09-07T07:38:14;14.90;99.90
30174;DHT22;16985;50.814;8.530;2023-09-07T07:40:41;15.00;99.90
30174;DHT22;16985;50.814;8.530;2023-09-07T07:43:08;15.10;99.90
30174;DHT22;16985;50.814;8.530;2023-09-07T07:45:37;15.20;99.90
30174;DHT22;16985;50.814;8.530;2023-09-07T07:48:05;15.30;99.90
30174;DHT22;16985;50.814;8.530;2023-09-07T07:50:40;15.50;99.90
30174;DHT22;16985;50.814;8.530;2023-09-07T07:53:08;15.60;99.90
30174;DHT22;16985;50.814;8.530;2023-09-07T07:55:38;15.70;99.90
30174;DHT22;16985;50.814;8.530;2023-09-07T07:58:06;15.80;99.90
30174;DHT22;16985;50.814;8.530;2023-09-07T08:00:34;16.00;99.90
30174;DHT22;16985;50.814;8.530;2023-09-07T08:03:04;16.10;99.90
30174;DHT22;16985;50.814;8.530;2023-09-07T08:05:35;16.20;99.90
30174;DHT22;16985;50.814;8.530;2023-09-07T08:08:07;16.30;99.90
30174;DHT22;16985;50.814;8.530;2023-09-07T08:10:34;16.50;99.90
30174;DHT22;16985;50.814;8.530;2023-09-07T08:13:03;16.60;99.90
30174;DHT22;16985;50.814;8.530;2023-09-07T08:15:32;16.70;99.90
30174;DHT22;16985;50.814;8.530;2023-09-07T08:18:00;16.80;99.90
30174;DHT22;16985;50.814;8.530;2023-09-07T08:20:27;17.00;99.90
30174;DHT22;16985;50.814;8.530;2023-09-07T08:22:55;17.10;99.90
30174;DHT22;16985;50.814;8.530;2023-09-07T08:25:21;17.20;99.90
30174;DHT22;16985;50.814;8.530;2023-09-07T08:27:49;17.40;99.90
30174;DHT22;16985;50.814;8.530;2023-09-07T08:30:16;17.50;99.90
30174;DHT22;16985;50.814;8.530;2023-09-07T08:32:48;17.60;99.90
30174;DHT22;16985;50.814;8.530;2023-09-07T08:35:16;17.70;99.90
30174;DHT22;16985;50.814;8.530;2023-09-07T08:37:43;17.90;99.90
30174;DHT22;16985;50.814;8.530;2023-09-07T08:40:09;18.00;99.90
30174;DHT22;16985;50.814;8.530;2023-09-07T08:42:36;18.10;99.90
30174;DHT22;16985;50.814;8.530;2023-09-07T08:45:04;18.20;99.90
30174;DHT22;16985;50.814;8.530;2023-09-07T08:47:37;18.40;99.90
30174;DHT22;16985;50.814;8.530;2023-09-07T08:50:05;18.50;99.90
30174;DHT22;16985;50.814;8.530;2023-09-07T08:52:34;18.70;99.90
30174;DHT22;16985;50.814;8.530;2023-09-07T08:55:02;18.80;99.90
30174;DHT22;16985;50.814;8.530;2023-09-07T08:57:30;19.00;99.90
30174;DHT22;16985;50.814;8.530;2023-09-07T08:59:58;19.10;99.90
30174;DHT22;16985;50.814;8.530;2023-09-07T09:02:24;19.20;99.90
30174;DHT22;16985;50.814;8.530;2023-09-07T09:04:51;19.40;99.90
30174;DHT22;16985;50.814;8.530;2023-09-07T09:07:18;19.60;99.90
30174;DHT22;16985;50.814;8.530;2023-09-07T09:09:44;19.80;99.90
30174;DHT22;16985;50.814;8.530;2023-09-07T09:12:11;19.90;99.90
30174;DHT22;16985;50.814;8.530;2023-09-07T09:14:42;20.10;99.90
30174;DHT22;16985;50.814;8.530;2023-09-07T09:17:14;20.20;99.90
30174;DHT22;16985;50.814;8.530;2023-09-07T09:19:41;20.40;99.90
30174;DHT22;16985;50.814;8.530;2023-09-07T09:22:07;20.60;99.90
30174;DHT22;16985;50.814;8.530;2023-09-07T09:24:34;20.80;99.90
30174;DHT22;16985;50.814;8.530;2023-09-07T09:27:00;20.90;99.90
30174;DHT22;16985;50.814;8.530;2023-09-07T09:29:26;21.10;99.90
30174;DHT22;16985;50.814;8.530;2023-09-07T09:31:53;21.30;99.90
30174;DHT22;16985;50.814;8.530;2023-09-07T09:34:19;21.40;99.90
30174;DHT22;16985;50.814;8.530;2023-09-07T09:36:45;21.60;99.90
30174;DHT22;16985;50.814;8.530;2023-09-07T09:39:22;21.70;99.90
30174;DHT22;16985;50.814;8.530;2023-09-07T09:41:49;21.90;99.30
30174;DHT22;16985;50.814;8.530;2023-09-07T09:44:16;22.00;98.30
30174;DHT22;16985;50.814;8.530;2023-09-07T09:46:43;22.10;98.00
30174;DHT22;16985;50.814;8.530;2023-09-07T09:49:10;22.30;97.20
30174;DHT22;16985;50.814;8.530;2023-09-07T09:51:39;22.50;96.30
30174;DHT22;16985;50.814;8.530;2023-09-07T09:54:06;22.70;95.80
30174;DHT22;16985;50.814;8.530;2023-09-07T09:56:34;22.80;95.00
30174;DHT22;16985;50.814;8.530;2023-09-07T09:59:00;23.00;94.70
30174;DHT22;16985;50.814;8.530;2023-09-07T10:01:26;23.20;94.30
30174;DHT22;16985;50.814;8.530;2023-09-07T10:03:53;23.40;93.50
30174;DHT22;16985;50.814;8.530;2023-09-07T10:06:24;23.50;92.80
30174;DHT22;16985;50.814;8.530;2023-09-07T10:09:05;23.70;91.90
30174;DHT22;16985;50.814;8.530;2023-09-07T10:11:42;23.90;91.50
30174;DHT22;16985;50.814;8.530;2023-09-07T10:14:08;24.00;91.10
30174;DHT22;16985;50.814;8.530;2023-09-07T10:16:53;24.10;90.60
30174;DHT22;16985;50.814;8.530;2023-09-07T10:19:25;24.30;89.90
30174;DHT22;16985;50.814;8.530;2023-09-07T10:21:55;24.50;88.80
30174;DHT22;16985;50.814;8.530;2023-09-07T10:24:34;24.60;87.70
30174;DHT22;16985;50.814;8.530;2023-09-07T10:27:07;24.80;87.30
30174;DHT22;16985;50.814;8.530;2023-09-07T10:29:44;25.00;86.90
30174;DHT22;16985;50.814;8.530;2023-09-07T10:32:12;25.20;86.40
30174;DHT22;16985;50.814;8.530;2023-09-07T10:34:40;25.30;86.00
30174;DHT22;16985;50.814;8.530;2023-09-07T10:37:13;25.50;84.90
30174;DHT22;16985;50.814;8.530;2023-09-07T10:39:40;25.60;84.70
30174;DHT22;16985;50.814;8.530;2023-09-07T10:42:36;25.80;84.00
30174;DHT22;16985;50.814;8.530;2023-09-07T10:45:13;26.00;82.40
30174;DHT22;16985;50.814;8.530;2023-09-07T10:47:43;26.10;81.20
30174;DHT22;16985;50.814;8.530;2023-09-07T10:50:12;26.30;80.60
30174;DHT22;16985;50.814;8.530;2023-09-07T10:52:42;26.50;80.00
30174;DHT22;16985;50.814;8.530;2023-09-07T10:55:10;26.50;79.60
30174;DHT22;16985;50.814;8.530;2023-09-07T10:57:47;26.60;79.30
30174;DHT22;16985;50.814;8.530;2023-09-07T11:00:14;26.70;78.70
30174;DHT22;16985;50.814;8.530;2023-09-07T11:02:42;26.80;78.10
30174;DHT22;16985;50.814;8.530;2023-09-07T11:05:08;26.90;77.20
30174;DHT22;16985;50.814;8.530;2023-09-07T11:07:36;27.00;76.80
30174;DHT22;16985;50.814;8.530;2023-09-07T11:10:05;27.10;76.60
30174;DHT22;16985;50.814;8.530;2023-09-07T11:12:39;27.20;76.20
30174;DHT22;16985;50.814;8.530;2023-09-07T11:15:10;27.30;75.30
30174;DHT22;16985;50.814;8.530;2023-09-07T11:17:39;27.50;73.60
30174;DHT22;16985;50.814;8.530;2023-09-07T11:20:07;26.80;71.00
30174;DHT22;16985;50.814;8.530;2023-09-07T11:22:33;27.80;71.00
30174;DHT22;16985;50.814;8.530;2023-09-07T11:25:00;27.80;71.00
30174;DHT22;16985;50.814;8.530;2023-09-07T11:27:29;27.90;70.80
30174;DHT22;16985;50.814;8.530;2023-09-07T11:29:56;28.00;71.40
30174;DHT22;16985;50.814;8.530;2023-09-07T11:32:23;28.10;71.60
30174;DHT22;16985;50.814;8.530;2023-09-07T11:34:51;28.20;71.10
30174;DHT22;16985;50.814;8.530;2023-09-07T11:37:23;28.20;70.80
30174;DHT22;16985;50.814;8.530;2023-09-07T11:39:49;27.80;70.50
30174;DHT22;16985;50.814;8.530;2023-09-07T11:42:15;28.70;70.30
30174;DHT22;16985;50.814;8.530;2023-09-07T11:44:41;28.50;70.20
30174;DHT22;16985;50.814;8.530;2023-09-07T11:47:07;28.60;69.20
30174;DHT22;16985;50.814;8.530;2023-09-07T11:49:36;28.60;68.60
30174;DHT22;16985;50.814;8.530;2023-09-07T11:52:02;28.70;68.50
30174;DHT22;16985;50.814;8.530;2023-09-07T11:54:29;28.80;67.90
30174;DHT22;16985;50.814;8.530;2023-09-07T11:56:55;28.80;67.60
30174;DHT22;16985;50.814;8.530;2023-09-07T11:59:21;28.90;67.10
30174;DHT22;16985;50.814;8.530;2023-09-07T12:01:47;29.00;67.00
30174;DHT22;16985;50.814;8.530;2023-09-07T12:04:14;29.00;66.50
30174;DHT22;16985;50.814;8.530;2023-09-07T12:06:41;29.10;66.80
30174;DHT22;16985;50.814;8.530;2023-09-07T12:09:07;29.20;64.90
30174;DHT22;16985;50.814;8.530;2023-09-07T12:11:35;29.20;64.00
30174;DHT22;16985;50.814;8.530;2023-09-07T12:14:01;29.30;64.40
30174;DHT22;16985;50.814;8.530;2023-09-07T12:16:28;29.40;63.80
30174;DHT22;16985;50.814;8.530;2023-09-07T12:18:54;29.40;63.40
30174;DHT22;16985;50.814;8.530;2023-09-07T12:21:20;29.50;63.80
30174;DHT22;16985;50.814;8.530;2023-09-07T12:23:46;29.60;63.80
30174;DHT22;16985;50.814;8.530;2023-09-07T12:26:13;29.70;62.80
30174;DHT22;16985;50.814;8.530;2023-09-07T12:28:45;29.80;62.60
30174;DHT22;16985;50.814;8.530;2023-09-07T12:31:10;29.80;62.40
30174;DHT22;16985;50.814;8.530;2023-09-07T12:33:37;29.90;60.80
30174;DHT22;16985;50.814;8.530;2023-09-07T12:36:04;30.00;60.60
30174;DHT22;16985;50.814;8.530;2023-09-07T12:38:34;31.30;61.40
30174;DHT22;16985;50.814;8.530;2023-09-07T12:41:00;30.20;60.20
30174;DHT22;16985;50.814;8.530;2023-09-07T12:43:26;30.20;59.70
30174;DHT22;16985;50.814;8.530;2023-09-07T12:48:19;30.30;59.20
30174;DHT22;16985;50.814;8.530;2023-09-07T12:50:46;30.40;59.90
30174;DHT22;16985;50.814;8.530;2023-09-07T12:53:12;30.50;59.90
30174;DHT22;16985;50.814;8.530;2023-09-07T12:55:38;30.50;59.20
30174;DHT22;16985;50.814;8.530;2023-09-07T12:58:04;30.60;59.50
30174;DHT22;16985;50.814;8.530;2023-09-07T13:00:30;30.70;58.80
30174;DHT22;16985;50.814;8.530;2023-09-07T13:02:55;30.70;57.70
30174;DHT22;16985;50.814;8.530;2023-09-07T13:05:22;30.80;56.20
30174;DHT22;16985;50.814;8.530;2023-09-07T13:07:48;30.80;56.30
30174;DHT22;16985;50.814;8.530;2023-09-07T13:10:14;30.90;56.50
30174;DHT22;16985;50.814;8.530;2023-09-07T13:12:40;31.00;56.70
30174;DHT22;16985;50.814;8.530;2023-09-07T13:15:07;31.00;56.60
30174;DHT22;16985;50.814;8.530;2023-09-07T13:17:33;31.00;56.30
30174;DHT22;16985;50.814;8.530;2023-09-07T13:19:59;31.10;56.80
30174;DHT22;16985;50.814;8.530;2023-09-07T13:22:25;31.10;56.20
30174;DHT22;16985;50.814;8.530;2023-09-07T13:24:51;31.20;56.00
30174;DHT22;16985;50.814;8.530;2023-09-07T13:27:18;31.30;56.60
30174;DHT22;16985;50.814;8.530;2023-09-07T13:29:44;31.30;56.70
30174;DHT22;16985;50.814;8.530;2023-09-07T13:32:10;31.20;55.90
30174;DHT22;16985;50.814;8.530;2023-09-07T13:34:36;31.20;56.30
30174;DHT22;16985;50.814;8.530;2023-09-07T13:37:01;31.30;57.30
30174;DHT22;16985;50.814;8.530;2023-09-07T13:39:28;31.30;57.40
30174;DHT22;16985;50.814;8.530;2023-09-07T13:41:54;31.40;57.70
30174;DHT22;16985;50.814;8.530;2023-09-07T13:44:20;31.40;58.00
30174;DHT22;16985;50.814;8.530;2023-09-07T13:46:48;31.40;57.60
30174;DHT22;16985;50.814;8.530;2023-09-07T13:49:14;31.40;57.50
30174;DHT22;16985;50.814;8.530;2023-09-07T13:51:41;31.40;57.50
30174;DHT22;16985;50.814;8.530;2023-09-07T13:54:08;31.40;57.60
30174;DHT22;16985;50.814;8.530;2023-09-07T13:56:34;31.50;58.10
30174;DHT22;16985;50.814;8.530;2023-09-07T13:59:02;31.40;57.60
30174;DHT22;16985;50.814;8.530;2023-09-07T14:01:28;31.40;57.20
30174;DHT22;16985;50.814;8.530;2023-09-07T14:03:53;31.30;57.30
30174;DHT22;16985;50.814;8.530;2023-09-07T14:06:20;31.30;57.30
30174;DHT22;16985;50.814;8.530;2023-09-07T14:08:49;31.30;57.60
30174;DHT22;16985;50.814;8.530;2023-09-07T14:11:19;31.30;58.10
30174;DHT22;16985;50.814;8.530;2023-09-07T14:13:47;31.30;58.30
30174;DHT22;16985;50.814;8.530;2023-09-07T14:16:13;31.30;58.50
30174;DHT22;16985;50.814;8.530;2023-09-07T14:18:39;31.30;58.30
30174;DHT22;16985;50.814;8.530;2023-09-07T14:21:05;31.30;58.10
30174;DHT22;16985;50.814;8.530;2023-09-07T14:23:31;31.40;58.80
30174;DHT22;16985;50.814;8.530;2023-09-07T14:25:56;31.40;58.50
30174;DHT22;16985;50.814;8.530;2023-09-07T14:28:24;31.40;58.30
30174;DHT22;16985;50.814;8.530;2023-09-07T14:30:50;31.40;58.20
30174;DHT22;16985;50.814;8.530;2023-09-07T14:33:19;31.40;57.90
30174;DHT22;16985;50.814;8.530;2023-09-07T14:35:45;31.40;58.50
30174;DHT22;16985;50.814;8.530;2023-09-07T14:38:12;31.40;58.80
30174;DHT22;16985;50.814;8.530;2023-09-07T14:40:38;31.40;59.30
30174;DHT22;16985;50.814;8.530;2023-09-07T14:43:04;31.40;59.00
30174;DHT22;16985;50.814;8.530;2023-09-07T14:45:31;31.50;59.20
30174;DHT22;16985;50.814;8.530;2023-09-07T14:47:57;31.40;59.40
30174;DHT22;16985;50.814;8.530;2023-09-07T14:50:23;31.40;58.40
30174;DHT22;16985;50.814;8.530;2023-09-07T14:52:49;31.40;57.70
30174;DHT22;16985;50.814;8.530;2023-09-07T14:55:15;31.30;57.30
30174;DHT22;16985;50.814;8.530;2023-09-07T14:57:41;31.30;57.20
30174;DHT22;16985;50.814;8.530;2023-09-07T15:00:09;31.30;57.30
30174;DHT22;16985;50.814;8.530;2023-09-07T15:02:37;31.30;57.60
30174;DHT22;16985;50.814;8.530;2023-09-07T15:05:03;31.30;56.90
30174;DHT22;16985;50.814;8.530;2023-09-07T15:07:29;31.30;56.80
30174;DHT22;16985;50.814;8.530;2023-09-07T15:09:56;31.30;56.50
30174;DHT22;16985;50.814;8.530;2023-09-07T15:12:22;31.20;56.80
30174;DHT22;16985;50.814;8.530;2023-09-07T15:14:48;31.20;55.60
30174;DHT22;16985;50.814;8.530;2023-09-07T15:17:15;31.30;55.20
30174;DHT22;16985;50.814;8.530;2023-09-07T15:19:42;31.20;54.80
30174;DHT22;16985;50.814;8.530;2023-09-07T15:22:08;31.20;54.70
30174;DHT22;16985;50.814;8.530;2023-09-07T15:24:34;31.20;55.20
30174;DHT22;16985;50.814;8.530;2023-09-07T15:27:10;31.20;56.00
30174;DHT22;16985;50.814;8.530;2023-09-07T15:29:37;31.10;56.30
30174;DHT22;16985;50.814;8.530;2023-09-07T15:32:04;31.10;56.30
30174;DHT22;16985;50.814;8.530;2023-09-07T15:34:32;31.10;56.80